Terminal Aerodrome Forecast
Issued by NWS Grand Rapids, MI

Home | Current Version | Previous Version | Text Only | Print | Product List | Glossary On
Versions: 1 2 3 4 5 6 7 8 9 10 11 12 13 14 15 16 17 18
000
FTUS43 KGRR 301143
TAFGRR
TAF
KGRR 301143Z 3012/3112 21006KT P6SM VCSH BKN050
     FM301600 23008KT P6SM VCTS SCT025CB BKN100
     FM302300 25004KT P6SM BKN100
     FM310800 33004KT 5SM BR VCSH BKN015=

USA.gov is the U.S. government's official web portal to all federal, state and local government web resources and services.